Time;durP1;ratioP1;P1;durP2;ratioP2;P2;SDS_P1;SDS_P2;PMS_P1;PMS_P2;Temp;Humidity;BMP_temperature;BMP_pressure;BME280_temperature;BME280_humidity;BME280_pressure;Samples;Min_cycle;Max_cycle;Signal;HPM_P1;HPM_P2
2022/09/13 00:01:22;;;;;;;3.83;3.42;;;;;;;;;;5092635;28;20041;-72
2022/09/13 00:03:49;;;;;;;5.40;3.70;;;;;;;;;;5092515;28;20056;-72
2022/09/13 00:06:17;;;;;;;5.15;3.35;;;;;;;;;;5092703;28;20051;-72
2022/09/13 00:08:44;;;;;;;5.43;3.83;;;;;;;;;;5092621;28;20044;-73
2022/09/13 00:11:18;;;;;;;4.13;3.40;;;;;;;;;;5089158;28;20044;-72
2022/09/13 00:13:45;;;;;;;3.72;3.17;;;;;;;;;;5071192;28;20052;-72
2022/09/13 00:16:12;;;;;;;4.65;3.60;;;;;;;;;;5084514;28;20054;-72
2022/09/13 00:18:39;;;;;;;5.13;3.63;;;;;;;;;;5092114;28;20063;-72
2022/09/13 00:21:07;;;;;;;5.00;3.38;;;;;;;;;;5092750;28;20055;-72
2022/09/13 00:23:34;;;;;;;3.97;3.08;;;;;;;;;;5092392;28;20043;-72
2022/09/13 00:26:08;;;;;;;3.92;3.20;;;;;;;;;;5091085;28;20075;-72
2022/09/13 00:28:35;;;;;;;3.63;3.33;;;;;;;;;;5092141;28;20044;-72
2022/09/13 00:31:03;;;;;;;3.50;3.20;;;;;;;;;;5092016;28;20044;-72
2022/09/13 00:33:29;;;;;;;4.05;3.20;;;;;;;;;;5092327;28;20044;-72
2022/09/13 00:35:56;;;;;;;3.53;3.00;;;;;;;;;;5091946;28;20048;-72
2022/09/13 00:38:22;;;;;;;5.65;3.45;;;;;;;;;;5092147;28;20056;-72
2022/09/13 00:40:49;;;;;;;4.28;3.22;;;;;;;;;;5092227;28;20402;-72
2022/09/13 00:43:17;;;;;;;3.92;3.40;;;;;;;;;;5091922;28;20071;-72
2022/09/13 00:45:44;;;;;;;3.38;3.00;;;;;;;;;;5091858;28;20056;-72
2022/09/13 00:48:16;;;;;;;3.78;3.17;;;;;;;;;;5092001;28;20077;-72
2022/09/13 00:50:45;;;;;;;4.40;3.22;;;;;;;;;;5091849;28;20044;-72
2022/09/13 00:53:17;;;;;;;4.35;3.28;;;;;;;;;;5091728;28;20482;-72
2022/09/13 00:56:06;;;;;;;5.93;3.53;;;;;;;;;;5091771;28;20490;-72
2022/09/13 00:58:34;;;;;;;4.25;3.35;;;;;;;;;;5092002;28;20162;-72
2022/09/13 01:01:02;;;;;;;3.40;3.10;;;;;;;;;;5091795;28;20055;-72
2022/09/13 01:03:30;;;;;;;4.45;2.92;;;;;;;;;;5091800;28;20059;-72
2022/09/13 01:05:59;;;;;;;4.18;3.00;;;;;;;;;;5091699;28;20074;-72
2022/09/13 01:08:28;;;;;;;4.45;3.13;;;;;;;;;;5091721;28;20054;-72
2022/09/13 01:10:55;;;;;;;4.35;3.55;;;;;;;;;;5091566;28;20060;-72
2022/09/13 01:13:22;;;;;;;4.60;3.47;;;;;;;;;;5077235;28;20040;-72
2022/09/13 01:15:49;;;;;;;3.80;3.47;;;;;;;;;;5091809;28;20040;-72
2022/09/13 01:18:15;;;;;;;5.30;2.88;;;;;;;;;;5091465;28;20060;-72
2022/09/13 01:20:53;;;;;;;3.85;3.20;;;;;;;;;;5091509;28;20044;-72
2022/09/13 01:23:32;;;;;;;4.75;3.33;;;;;;;;;;5091774;28;20044;-72
2022/09/13 01:26:32;;;;;;;3.67;3.38;;;;;;;;;;5091463;28;20467;-73
2022/09/13 01:29:14;;;;;;;4.00;3.28;;;;;;;;;;5094526;28;20048;-72
2022/09/13 01:31:45;;;;;;;5.70;3.70;;;;;;;;;;5095700;28;20048;-72
2022/09/13 01:34:21;;;;;;;4.80;3.38;;;;;;;;;;5095732;28;20417;-72
2022/09/13 01:37:03;;;;;;;4.68;3.58;;;;;;;;;;5095677;28;20051;-72
2022/09/13 01:39:48;;;;;;;3.60;3.30;;;;;;;;;;5095324;28;20043;-72
2022/09/13 01:42:15;;;;;;;4.30;3.88;;;;;;;;;;5095570;28;20052;-72
2022/09/13 01:44:52;;;;;;;5.53;4.05;;;;;;;;;;5095463;28;20074;-72
2022/09/13 01:47:25;;;;;;;5.38;3.95;;;;;;;;;;5095584;28;20058;-72
2022/09/13 01:49:58;;;;;;;5.60;4.43;;;;;;;;;;5095378;28;20044;-72
2022/09/13 01:52:24;;;;;;;5.90;5.30;;;;;;;;;;5095055;28;20080;-72
2022/09/13 01:55:04;;;;;;;5.30;4.68;;;;;;;;;;5093741;28;20048;-72
2022/09/13 01:57:33;;;;;;;9.45;6.53;;;;;;;;;;5095253;28;20048;-72
2022/09/13 02:00:00;;;;;;;6.38;5.78;;;;;;;;;;5095288;28;20051;-72
2022/09/13 02:02:30;;;;;;;8.25;6.47;;;;;;;;;;5095199;28;20059;-72
2022/09/13 02:05:03;;;;;;;7.93;7.13;;;;;;;;;;5094834;28;20048;-72
2022/09/13 02:07:35;;;;;;;8.73;7.47;;;;;;;;;;5094774;28;20055;-72
2022/09/13 02:10:05;;;;;;;7.90;7.15;;;;;;;;;;5094934;28;20044;-72
2022/09/13 02:12:33;;;;;;;8.43;7.63;;;;;;;;;;5095286;28;20407;-72
2022/09/13 02:15:05;;;;;;;8.18;7.38;;;;;;;;;;5094613;28;20048;-72
2022/09/13 02:17:36;;;;;;;9.82;8.82;;;;;;;;;;5095053;28;20052;-72
2022/09/13 02:20:15;;;;;;;10.68;9.57;;;;;;;;;;5094782;28;20399;-72
2022/09/13 02:22:45;;;;;;;12.88;10.70;;;;;;;;;;5094602;28;20510;-72
2022/09/13 02:25:14;;;;;;;13.45;11.10;;;;;;;;;;5094830;28;20406;-72
2022/09/13 02:27:44;;;;;;;15.50;12.98;;;;;;;;;;5094474;28;20505;-72
2022/09/13 02:30:11;;;;;;;14.38;12.20;;;;;;;;;;5094753;28;20051;-72
2022/09/13 02:32:52;;;;;;;16.40;13.35;;;;;;;;;;5094272;28;20513;-72
2022/09/13 02:35:25;;;;;;;15.32;13.27;;;;;;;;;;5094686;28;20048;-72
2022/09/13 02:37:56;;;;;;;15.77;13.13;;;;;;;;;;5094554;28;20050;-72
2022/09/13 02:40:25;;;;;;;17.60;13.05;;;;;;;;;;5093798;28;20051;-72
2022/09/13 02:42:56;;;;;;;17.17;13.50;;;;;;;;;;5094293;28;20054;-72
2022/09/13 02:45:28;;;;;;;16.90;13.95;;;;;;;;;;5094345;28;20050;-72
2022/09/13 02:47:56;;;;;;;18.15;14.70;;;;;;;;;;5093987;28;20487;-72
2022/09/13 02:50:22;;;;;;;15.90;13.82;;;;;;;;;;5093982;28;20050;-72
2022/09/13 02:52:58;;;;;;;18.77;15.35;;;;;;;;;;5093844;28;20401;-72
2022/09/13 02:55:29;;;;;;;19.10;14.70;;;;;;;;;;5093036;28;20411;-72
2022/09/13 02:57:56;;;;;;;18.00;15.25;;;;;;;;;;5094135;28;20055;-72
2022/09/13 03:00:22;;;;;;;17.55;14.85;;;;;;;;;;5093939;28;20048;-72
2022/09/13 03:02:50;;;;;;;16.65;14.85;;;;;;;;;;5093716;28;20438;-72
2022/09/13 03:05:17;;;;;;;18.95;14.95;;;;;;;;;;5093922;28;20048;-72
2022/09/13 03:07:43;;;;;;;17.92;14.55;;;;;;;;;;5093280;28;20048;-72
2022/09/13 03:10:12;;;;;;;18.40;15.27;;;;;;;;;;5093548;28;20043;-72
2022/09/13 03:12:57;;;;;;;21.75;15.07;;;;;;;;;;5086775;28;20471;-72
2022/09/13 03:15:24;;;;;;;18.83;14.57;;;;;;;;;;5092213;28;20052;-72
2022/09/13 03:18:05;;;;;;;19.40;15.57;;;;;;;;;;5093179;28;20818;-72
2022/09/13 03:20:42;;;;;;;20.88;15.45;;;;;;;;;;5093673;28;20044;-72
2022/09/13 03:23:21;;;;;;;20.30;15.02;;;;;;;;;;5093545;28;20071;-72
2022/09/13 03:26:06;;;;;;;20.10;14.95;;;;;;;;;;5093355;28;20051;-72
2022/09/13 03:28:41;;;;;;;17.60;14.55;;;;;;;;;;5092994;28;20044;-72
2022/09/13 03:31:10;;;;;;;17.10;13.52;;;;;;;;;;5093377;28;20048;-73
2022/09/13 03:33:43;;;;;;;20.33;14.13;;;;;;;;;;5093389;28;20055;-72
2022/09/13 03:36:09;;;;;;;17.17;13.40;;;;;;;;;;5093563;28;20127;-72
2022/09/13 03:38:39;;;;;;;17.92;13.75;;;;;;;;;;5092985;28;20048;-72
2022/09/13 03:41:21;;;;;;;17.67;14.13;;;;;;;;;;5093326;28;20054;-73
2022/09/13 03:43:49;;;;;;;16.45;11.60;;;;;;;;;;5093066;28;20052;-73
2022/09/13 03:46:19;;;;;;;16.70;11.32;;;;;;;;;;5093212;28;20048;-73
2022/09/13 03:48:46;;;;;;;12.82;9.85;;;;;;;;;;5091852;28;20066;-73
2022/09/13 03:51:13;;;;;;;13.45;10.07;;;;;;;;;;5092267;28;20087;-72
2022/09/13 03:53:46;;;;;;;13.10;9.45;;;;;;;;;;5093066;28;20054;-72
2022/09/13 03:56:17;;;;;;;10.80;8.50;;;;;;;;;;5092689;28;20488;-72
2022/09/13 03:58:43;;;;;;;9.98;7.75;;;;;;;;;;5093015;28;20082;-72
2022/09/13 04:01:09;;;;;;;9.45;7.85;;;;;;;;;;5092625;28;20044;-73
2022/09/13 04:03:39;;;;;;;7.72;6.90;;;;;;;;;;5092632;28;20483;-72
2022/09/13 04:06:05;;;;;;;7.15;6.40;;;;;;;;;;5092507;28;20048;-73
2022/09/13 04:08:32;;;;;;;7.03;6.35;;;;;;;;;;5092429;28;20040;-73
2022/09/13 04:10:59;;;;;;;8.38;6.03;;;;;;;;;;5092793;28;20044;-72
2022/09/13 04:13:25;;;;;;;8.50;6.68;;;;;;;;;;5092565;28;20396;-73
2022/09/13 04:15:52;;;;;;;6.68;5.60;;;;;;;;;;5092377;28;20054;-73
2022/09/13 04:18:19;;;;;;;6.68;5.55;;;;;;;;;;5092219;28;20052;-73
2022/09/13 04:20:52;;;;;;;7.30;6.13;;;;;;;;;;5092281;28;20507;-73
2022/09/13 04:23:18;;;;;;;6.82;5.57;;;;;;;;;;5092417;28;20044;-73
2022/09/13 04:25:45;;;;;;;7.43;6.22;;;;;;;;;;5092216;28;20510;-73
2022/09/13 04:28:11;;;;;;;6.30;5.70;;;;;;;;;;5092114;28;20055;-73
2022/09/13 04:30:38;;;;;;;6.28;5.63;;;;;;;;;;5091981;28;20384;-72
2022/09/13 04:33:08;;;;;;;5.07;4.57;;;;;;;;;;5092078;28;20135;-73
2022/09/13 04:35:34;;;;;;;5.10;4.10;;;;;;;;;;5092206;28;20055;-73
2022/09/13 04:38:01;;;;;;;4.20;3.73;;;;;;;;;;5092198;28;20047;-73
2022/09/13 04:40:28;;;;;;;3.85;3.55;;;;;;;;;;5090642;28;20406;-72
2022/09/13 04:42:54;;;;;;;5.25;3.33;;;;;;;;;;5092004;28;20044;-73
2022/09/13 04:45:21;;;;;;;3.85;3.13;;;;;;;;;;5091852;28;20052;-73
2022/09/13 04:47:53;;;;;;;3.17;2.83;;;;;;;;;;5091894;28;20052;-73
2022/09/13 04:50:20;;;;;;;3.40;2.70;;;;;;;;;;5091729;28;20055;-73
2022/09/13 04:52:46;;;;;;;3.55;2.08;;;;;;;;;;5092156;28;20051;-72
2022/09/13 04:55:13;;;;;;;2.80;2.42;;;;;;;;;;5091906;28;20063;-73
2022/09/13 04:57:40;;;;;;;3.83;2.47;;;;;;;;;;5091972;28;20048;-72
2022/09/13 05:00:07;;;;;;;3.03;2.25;;;;;;;;;;5091965;28;20058;-73
2022/09/13 05:02:34;;;;;;;3.30;2.00;;;;;;;;;;5090449;28;20048;-73
2022/09/13 05:05:00;;;;;;;3.00;2.15;;;;;;;;;;5091874;28;20055;-73
2022/09/13 05:07:26;;;;;;;3.33;2.42;;;;;;;;;;5091814;28;20052;-72
2022/09/13 05:09:53;;;;;;;2.35;2.15;;;;;;;;;;5091833;28;20052;-72
2022/09/13 05:12:19;;;;;;;3.53;1.83;;;;;;;;;;5091574;28;20067;-72
2022/09/13 05:14:45;;;;;;;3.38;1.73;;;;;;;;;;5091706;28;20044;-72
2022/09/13 05:17:12;;;;;;;2.80;1.75;;;;;;;;;;5091576;28;20052;-72
2022/09/13 05:19:38;;;;;;;4.53;1.88;;;;;;;;;;5091412;28;20463;-73
2022/09/13 05:22:04;;;;;;;2.17;1.85;;;;;;;;;;5091732;28;20047;-72
2022/09/13 05:24:32;;;;;;;3.20;2.15;;;;;;;;;;5091767;28;20063;-72
2022/09/13 05:26:58;;;;;;;3.60;1.90;;;;;;;;;;5091632;28;20048;-72
2022/09/13 05:29:24;;;;;;;4.72;2.00;;;;;;;;;;5091650;28;20048;-72
2022/09/13 05:31:51;;;;;;;5.20;2.30;;;;;;;;;;5091337;28;20055;-72
2022/09/13 05:34:18;;;;;;;1.67;1.58;;;;;;;;;;5091681;28;20052;-72
2022/09/13 05:36:45;;;;;;;3.90;1.65;;;;;;;;;;5091279;28;20052;-72
2022/09/13 05:39:17;;;;;;;4.35;1.60;;;;;;;;;;5091343;28;20555;-73
2022/09/13 05:41:58;;;;;;;2.83;1.70;;;;;;;;;;5091564;28;20109;-72
2022/09/13 05:44:25;;;;;;;4.18;1.45;;;;;;;;;;5090313;28;20063;-72
2022/09/13 05:46:51;;;;;;;1.83;1.45;;;;;;;;;;5091369;28;20509;-72
2022/09/13 05:49:18;;;;;;;4.13;1.73;;;;;;;;;;5091387;28;20045;-73
2022/09/13 05:51:44;;;;;;;6.22;1.60;;;;;;;;;;5091566;28;20118;-73
2022/09/13 05:54:11;;;;;;;2.58;1.52;;;;;;;;;;5091458;28;20041;-72
2022/09/13 05:56:38;;;;;;;2.97;1.17;;;;;;;;;;5091512;28;20159;-73
2022/09/13 05:59:04;;;;;;;2.20;1.20;;;;;;;;;;5091470;28;20044;-73
2022/09/13 06:01:30;;;;;;;3.65;1.55;;;;;;;;;;5089933;28;20047;-73
2022/09/13 06:03:58;;;;;;;3.55;1.55;;;;;;;;;;5090708;28;20067;-73
2022/09/13 06:06:24;;;;;;;7.82;1.80;;;;;;;;;;5091215;28;20048;-72
2022/09/13 06:08:51;;;;;;;3.90;1.65;;;;;;;;;;5091085;28;20044;-73
2022/09/13 06:11:18;;;;;;;2.50;1.30;;;;;;;;;;5091099;28;20044;-72
2022/09/13 06:13:44;;;;;;;5.78;1.63;;;;;;;;;;5091766;28;20483;-72
2022/09/13 06:16:12;;;;;;;2.47;1.80;;;;;;;;;;5094772;28;20042;-73
2022/09/13 06:18:38;;;;;;;2.70;1.85;;;;;;;;;;5093812;28;20056;-73
2022/09/13 06:21:06;;;;;;;5.20;1.58;;;;;;;;;;5094724;28;20048;-73
2022/09/13 06:23:33;;;;;;;5.07;1.70;;;;;;;;;;5094778;28;20048;-73
2022/09/13 06:25:59;;;;;;;3.08;1.40;;;;;;;;;;5093918;28;20047;-71
2022/09/13 06:28:26;;;;;;;3.40;1.60;;;;;;;;;;5094309;28;20054;-71
2022/09/13 06:30:58;;;;;;;3.57;1.37;;;;;;;;;;5093788;28;20051;-71
2022/09/13 06:33:24;;;;;;;3.50;1.50;;;;;;;;;;5094426;28;20522;-71
2022/09/13 06:35:50;;;;;;;5.40;1.48;;;;;;;;;;5093908;28;20518;-72
2022/09/13 06:38:17;;;;;;;2.75;1.42;;;;;;;;;;5093850;28;20043;-72
2022/09/13 06:40:43;;;;;;;4.47;1.52;;;;;;;;;;5093691;28;20056;-71
2022/09/13 06:43:10;;;;;;;3.75;1.25;;;;;;;;;;5093341;28;20521;-71
2022/09/13 06:45:36;;;;;;;6.70;1.50;;;;;;;;;;5094077;28;20048;-72
2022/09/13 06:48:03;;;;;;;2.40;1.30;;;;;;;;;;5094146;28;20487;-72
2022/09/13 06:50:29;;;;;;;4.47;1.50;;;;;;;;;;5090291;28;20476;-72
2022/09/13 06:52:56;;;;;;;2.77;1.13;;;;;;;;;;5083343;28;20048;-72
2022/09/13 06:55:22;;;;;;;5.20;1.58;;;;;;;;;;5093610;28;20420;-72
2022/09/13 06:57:49;;;;;;;2.85;1.10;;;;;;;;;;5093744;28;20442;-72
2022/09/13 07:00:16;;;;;;;3.10;1.20;;;;;;;;;;5093925;28;20039;-71
2022/09/13 07:02:42;;;;;;;2.85;1.17;;;;;;;;;;5093534;28;20070;-71
2022/09/13 07:05:09;;;;;;;5.65;1.63;;;;;;;;;;5093439;28;20051;-71
2022/09/13 07:07:36;;;;;;;5.82;1.40;;;;;;;;;;5092894;28;20048;-71
2022/09/13 07:10:02;;;;;;;2.88;1.13;;;;;;;;;;5093548;28;20052;-72
2022/09/13 07:12:29;;;;;;;4.20;1.30;;;;;;;;;;5093477;28;20052;-71
2022/09/13 07:14:55;;;;;;;5.03;1.48;;;;;;;;;;5065682;28;20044;-71
2022/09/13 07:17:21;;;;;;;3.25;1.20;;;;;;;;;;5093420;28;20052;-71
2022/09/13 07:19:48;;;;;;;6.43;1.38;;;;;;;;;;5093577;28;20052;-72
2022/09/13 07:22:14;;;;;;;1.92;1.10;;;;;;;;;;5093778;28;20524;-71
2022/09/13 07:24:41;;;;;;;4.25;1.10;;;;;;;;;;5093652;28;20419;-72
2022/09/13 07:27:07;;;;;;;5.07;1.55;;;;;;;;;;5092909;28;20062;-71
2022/09/13 07:29:33;;;;;;;2.78;1.05;;;;;;;;;;5093203;28;20495;-72
2022/09/13 07:32:00;;;;;;;3.63;0.93;;;;;;;;;;5092185;28;20055;-72
2022/09/13 07:34:26;;;;;;;2.67;1.08;;;;;;;;;;5092298;28;20521;-72
2022/09/13 07:36:52;;;;;;;4.07;0.90;;;;;;;;;;5092741;28;20493;-72
2022/09/13 07:39:19;;;;;;;5.32;1.60;;;;;;;;;;5093027;28;20047;-72
2022/09/13 07:41:48;;;;;;;3.08;0.93;;;;;;;;;;5091315;28;20523;-73
2022/09/13 07:44:15;;;;;;;3.80;1.27;;;;;;;;;;5092582;28;20047;-73
2022/09/13 07:46:44;;;;;;;1.98;0.90;;;;;;;;;;5089586;28;20491;-73
2022/09/13 07:49:11;;;;;;;3.08;1.00;;;;;;;;;;5090866;28;20040;-72
2022/09/13 07:51:39;;;;;;;3.45;1.00;;;;;;;;;;5068578;28;20139;-72
2022/09/13 07:54:05;;;;;;;;;;;;;;;;;;5072094;28;20048;-72
2022/09/13 07:56:33;;;;;;;4.65;1.08;;;;;;;;;;5084555;28;19930;-72
2022/09/13 07:59:00;;;;;;;3.75;0.93;;;;;;;;;;5078926;28;20048;-72
2022/09/13 08:01:28;;;;;;;1.73;0.70;;;;;;;;;;5092509;28;20048;-72
2022/09/13 08:03:54;;;;;;;;;;;;;;;;;;5092540;28;20052;-72
2022/09/13 08:06:21;;;;;;;2.40;0.90;;;;;;;;;;5092394;28;20282;-72
2022/09/13 08:08:47;;;;;;;2.17;0.80;;;;;;;;;;5091374;28;20252;-72
2022/09/13 08:11:17;;;;;;;1.42;0.80;;;;;;;;;;5086156;28;20323;-72
2022/09/13 08:13:44;;;;;;;2.15;0.77;;;;;;;;;;5091574;28;20508;-72
2022/09/13 08:16:10;;;;;;;2.08;0.95;;;;;;;;;;5091614;28;20406;-71
2022/09/13 08:18:37;;;;;;;4.30;1.00;;;;;;;;;;5078156;28;20087;-72
2022/09/13 08:21:03;;;;;;;3.53;1.00;;;;;;;;;;5091452;28;20056;-72
2022/09/13 08:23:30;;;;;;;3.75;1.40;;;;;;;;;;5091152;28;20054;-71
2022/09/13 08:25:59;;;;;;;2.95;1.00;;;;;;;;;;5091581;28;20060;-72
2022/09/13 08:28:26;;;;;;;2.53;0.93;;;;;;;;;;5091997;28;20067;-72
2022/09/13 08:30:53;;;;;;;3.63;1.27;;;;;;;;;;5091863;28;20437;-72
2022/09/13 08:33:20;;;;;;;3.97;1.10;;;;;;;;;;5091828;28;20090;-73
2022/09/13 08:35:50;;;;;;;4.15;0.95;;;;;;;;;;5091636;28;20059;-72
2022/09/13 08:38:17;;;;;;;2.78;1.00;;;;;;;;;;5091037;28;20154;-72
2022/09/13 08:40:48;;;;;;;3.67;1.30;;;;;;;;;;5091471;28;20436;-72
2022/09/13 08:43:20;;;;;;;4.95;1.40;;;;;;;;;;5091387;28;20518;-72
2022/09/13 08:46:08;;;;;;;4.30;1.38;;;;;;;;;;5089047;28;20384;-72
2022/09/13 08:48:36;;;;;;;3.83;1.00;;;;;;;;;;5078762;28;20056;-73
2022/09/13 08:51:06;;;;;;;3.83;1.25;;;;;;;;;;5091367;28;20058;-73
2022/09/13 08:53:39;;;;;;;3.42;1.30;;;;;;;;;;5091604;28;20040;-72
2022/09/13 08:56:10;;;;;;;2.35;0.93;;;;;;;;;;5091571;28;20048;-73
2022/09/13 08:58:45;;;;;;;6.85;1.48;;;;;;;;;;5091310;28;20052;-72
2022/09/13 09:01:18;;;;;;;4.90;1.38;;;;;;;;;;5090118;28;20048;-72
2022/09/13 09:03:53;;;;;;;4.72;1.30;;;;;;;;;;5091539;28;20078;-72
2022/09/13 09:06:21;;;;;;;4.30;1.00;;;;;;;;;;5091313;28;20052;-73
2022/09/13 09:08:53;;;;;;;4.30;1.40;;;;;;;;;;5091070;28;20060;-73
2022/09/13 09:11:30;;;;;;;3.13;1.20;;;;;;;;;;5091252;28;20052;-73
2022/09/13 09:14:03;;;;;;;4.10;1.40;;;;;;;;;;5090243;28;20048;-73
2022/09/13 09:16:38;;;;;;;3.90;1.38;;;;;;;;;;5091029;28;20044;-73
2022/09/13 09:19:17;;;;;;;3.88;1.35;;;;;;;;;;5090855;28;20082;-73
2022/09/13 09:21:44;;;;;;;3.97;1.20;;;;;;;;;;5091319;28;20056;-73
2022/09/13 09:24:11;;;;;;;;;;;;;;;;;;5091486;28;20066;-73
2022/09/13 09:26:37;;;;;;;2.20;1.10;;;;;;;;;;5090915;28;19924;-73
2022/09/13 09:29:15;;;;;;;5.20;1.65;;;;;;;;;;5091140;28;20070;-73
2022/09/13 09:31:47;;;;;;;3.95;1.52;;;;;;;;;;5089827;28;20055;-73
2022/09/13 09:34:17;;;;;;;5.47;1.40;;;;;;;;;;5091028;28;20040;-72
2022/09/13 09:36:46;;;;;;;4.75;1.52;;;;;;;;;;5091047;28;20048;-72
2022/09/13 09:39:15;;;;;;;7.32;2.03;;;;;;;;;;5091095;28;20088;-72
2022/09/13 09:41:42;;;;;;;4.70;1.67;;;;;;;;;;5091093;28;20134;-72
2022/09/13 09:44:15;;;;;;;4.65;1.98;;;;;;;;;;5090748;28;20462;-72
2022/09/13 09:46:42;;;;;;;4.55;1.65;;;;;;;;;;5080579;28;20059;-72
2022/09/13 09:50:07;;;;;;;6.65;1.75;;;;;;;;;;5074844;28;20052;-72
2022/09/13 09:51:56;;;;;;;6.13;1.55;;;;;;;;;;5094728;28;20079;-72
2022/09/13 09:54:23;;;;;;;7.55;2.10;;;;;;;;;;5093373;28;20055;-72
2022/09/13 09:56:51;;;;;;;5.25;1.80;;;;;;;;;;5094955;28;20074;-73
2022/09/13 09:59:30;;;;;;;3.95;1.70;;;;;;;;;;5094703;28;20102;-72
2022/09/13 10:01:56;;;;;;;3.35;1.60;;;;;;;;;;5095062;28;20044;-72
2022/09/13 10:04:23;;;;;;;4.80;1.60;;;;;;;;;;5094881;28;20113;-73
2022/09/13 10:06:50;;;;;;;3.97;1.83;;;;;;;;;;5094797;28;20131;-72
2022/09/13 10:09:20;;;;;;;3.25;1.40;;;;;;;;;;5094555;28;20487;-72
2022/09/13 10:11:47;;;;;;;3.70;1.70;;;;;;;;;;5094643;28;20070;-72
2022/09/13 10:14:14;;;;;;;;;;;;;;;;;;5093906;28;20052;-73
2022/09/13 10:16:40;;;;;;;3.80;1.85;;;;;;;;;;5094784;28;19924;-72
2022/09/13 10:19:22;;;;;;;3.08;1.98;;;;;;;;;;5094390;28;20048;-72
2022/09/13 10:22:01;;;;;;;3.67;1.70;;;;;;;;;;5094699;28;20055;-72
2022/09/13 10:24:29;;;;;;;4.68;2.20;;;;;;;;;;5093065;28;20059;-72
2022/09/13 10:26:55;;;;;;;;;;;;;;;;;;5094636;28;20513;-72
2022/09/13 10:29:23;;;;;;;5.10;1.85;;;;;;;;;;5094533;28;19923;-72
2022/09/13 10:31:49;;;;;;;;;;;;;;;;;;5093934;28;20062;-72
2022/09/13 10:34:15;;;;;;;4.85;2.00;;;;;;;;;;5094361;28;19920;-72
2022/09/13 10:36:47;;;;;;;5.03;2.17;;;;;;;;;;5094128;28;20052;-72
2022/09/13 10:39:20;;;;;;;3.65;1.90;;;;;;;;;;5093978;28;20093;-73
2022/09/13 10:41:57;;;;;;;5.68;2.40;;;;;;;;;;5094248;28;20056;-72
2022/09/13 10:44:23;;;;;;;;;;;;;;;;;;5094225;28;20044;-72
2022/09/13 10:46:50;;;;;;;2.83;2.47;;;;;;;;;;5081109;28;20142;-73
2022/09/13 10:49:35;;;;;;;4.72;2.50;;;;;;;;;;5085030;28;20414;-73
2022/09/13 10:52:21;;;;;;;4.93;2.45;;;;;;;;;;5093833;28;20036;-73
2022/09/13 10:54:47;;;;;;;4.97;2.80;;;;;;;;;;5093979;28;20044;-73
2022/09/13 10:57:33;;;;;;;4.97;3.00;;;;;;;;;;5093851;28;20040;-73
2022/09/13 11:00:00;;;;;;;3.60;2.40;;;;;;;;;;5093353;28;20044;-73
2022/09/13 11:02:38;;;;;;;6.05;2.95;;;;;;;;;;5093722;28;20048;-73
2022/09/13 11:05:11;;;;;;;3.17;2.70;;;;;;;;;;5093341;28;20477;-73
2022/09/13 11:07:42;;;;;;;7.80;2.95;;;;;;;;;;5093484;28;20399;-73
2022/09/13 11:10:32;;;;;;;3.67;3.00;;;;;;;;;;5093209;28;20050;-73
2022/09/13 11:13:06;;;;;;;5.07;2.58;;;;;;;;;;5088685;28;20048;-73
2022/09/13 11:15:35;;;;;;;3.63;2.85;;;;;;;;;;5093401;28;20132;-73
2022/09/13 11:18:08;;;;;;;7.03;3.38;;;;;;;;;;5092921;28;20060;-73
2022/09/13 11:20:54;;;;;;;5.95;3.20;;;;;;;;;;5093302;28;20115;-73
2022/09/13 11:23:25;;;;;;;7.07;3.35;;;;;;;;;;5092940;28;20059;-72
2022/09/13 11:26:00;;;;;;;4.20;3.42;;;;;;;;;;5093018;28;20044;-72
2022/09/13 11:28:26;;;;;;;4.80;3.00;;;;;;;;;;5093113;28;20060;-72
2022/09/13 11:30:56;;;;;;;4.40;3.20;;;;;;;;;;5092990;28;20059;-72
2022/09/13 11:33:41;;;;;;;5.82;2.80;;;;;;;;;;5092624;28;20384;-72
2022/09/13 11:36:26;;;;;;;5.60;2.65;;;;;;;;;;5092703;28;20083;-72
2022/09/13 11:39:01;;;;;;;5.65;3.25;;;;;;;;;;5092903;28;20052;-72
2022/09/13 11:41:43;;;;;;;4.82;2.92;;;;;;;;;;5092654;28;20353;-72
2022/09/13 11:44:16;;;;;;;4.50;2.60;;;;;;;;;;5092700;28;20438;-72
2022/09/13 11:47:01;;;;;;;6.18;2.80;;;;;;;;;;5082147;28;20517;-72
2022/09/13 11:49:27;;;;;;;6.07;2.70;;;;;;;;;;5064955;28;20056;-72
2022/09/13 11:51:57;;;;;;;4.05;2.78;;;;;;;;;;5081581;28;20113;-72
2022/09/13 11:54:41;;;;;;;3.40;2.50;;;;;;;;;;5077019;28;20055;-72
2022/09/13 11:57:13;;;;;;;7.35;3.15;;;;;;;;;;5092397;28;20058;-72
2022/09/13 11:59:40;;;;;;;4.40;3.08;;;;;;;;;;5093079;28;20055;-72
2022/09/13 12:02:18;;;;;;;4.40;2.90;;;;;;;;;;5092996;28;20048;-72
2022/09/13 12:05:04;;;;;;;3.25;2.75;;;;;;;;;;5092751;28;20478;-72
2022/09/13 12:07:54;;;;;;;3.50;2.58;;;;;;;;;;5091537;28;20123;-72
2022/09/13 12:10:37;;;;;;;3.92;2.67;;;;;;;;;;5093103;28;20052;-71
2022/09/13 12:13:06;;;;;;;4.78;2.63;;;;;;;;;;5092109;28;20050;-72
2022/09/13 12:15:38;;;;;;;3.92;2.35;;;;;;;;;;5092758;28;20044;-72
2022/09/13 12:18:16;;;;;;;4.85;2.65;;;;;;;;;;5092165;28;20044;-72
2022/09/13 12:20:47;;;;;;;4.70;2.97;;;;;;;;;;5092671;28;20051;-72
2022/09/13 12:23:15;;;;;;;4.65;2.58;;;;;;;;;;5092261;28;20048;-72
2022/09/13 12:25:49;;;;;;;4.15;2.60;;;;;;;;;;5092482;28;20076;-72
2022/09/13 12:28:22;;;;;;;4.05;2.63;;;;;;;;;;5092212;28;20058;-72
2022/09/13 12:30:55;;;;;;;3.00;2.63;;;;;;;;;;5092718;28;20364;-72
2022/09/13 12:33:22;;;;;;;4.80;2.90;;;;;;;;;;5092158;28;20055;-72
2022/09/13 12:36:06;;;;;;;4.63;3.03;;;;;;;;;;5092473;28;20044;-72
2022/09/13 12:38:42;;;;;;;3.63;2.80;;;;;;;;;;5092309;28;20055;-72
2022/09/13 12:41:27;;;;;;;4.10;2.97;;;;;;;;;;5092050;28;20488;-72
2022/09/13 12:44:12;;;;;;;2.78;2.17;;;;;;;;;;5091885;28;20051;-72
2022/09/13 12:46:57;;;;;;;2.83;2.20;;;;;;;;;;5092279;28;20048;-72
2022/09/13 12:49:36;;;;;;;4.63;2.63;;;;;;;;;;5092158;28;20040;-72
2022/09/13 12:52:05;;;;;;;4.18;2.65;;;;;;;;;;5091709;28;20514;-72
2022/09/13 12:54:37;;;;;;;3.53;2.33;;;;;;;;;;5092180;28;20043;-71
2022/09/13 12:57:15;;;;;;;5.15;2.50;;;;;;;;;;5090825;28;20398;-72
2022/09/13 13:00:00;;;;;;;4.00;2.50;;;;;;;;;;5091622;28;20483;-72
2022/09/13 13:02:26;;;;;;;6.53;2.20;;;;;;;;;;5091913;28;20048;-72
2022/09/13 13:04:56;;;;;;;3.15;2.30;;;;;;;;;;5091906;28;20410;-72
2022/09/13 13:07:23;;;;;;;3.20;2.10;;;;;;;;;;5091575;28;20044;-72
2022/09/13 13:09:51;;;;;;;6.43;2.47;;;;;;;;;;5091687;28;20131;-72
2022/09/13 13:12:24;;;;;;;6.53;2.58;;;;;;;;;;5091755;28;20050;-72
2022/09/13 13:14:52;;;;;;;6.05;2.67;;;;;;;;;;5091521;28;20067;-71
2022/09/13 13:17:39;;;;;;;4.07;2.22;;;;;;;;;;5091413;28;20056;-71
2022/09/13 13:20:24;;;;;;;4.15;3.08;;;;;;;;;;5090314;28;20044;-72
2022/09/13 13:22:51;;;;;;;4.78;2.50;;;;;;;;;;5092919;28;20056;-72
2022/09/13 13:25:37;;;;;;;5.35;2.60;;;;;;;;;;5095701;28;20051;-72
2022/09/13 13:28:33;;;;;;;4.18;2.58;;;;;;;;;;5095151;28;20483;-72
2022/09/13 13:31:00;;;;;;;4.82;2.63;;;;;;;;;;5074989;28;20147;-71
2022/09/13 13:33:27;;;;;;;3.20;2.30;;;;;;;;;;5096781;28;20036;-72
2022/09/13 13:35:54;;;;;;;;;;;;;;;;;;5094804;28;20097;-72
2022/09/13 13:38:37;;;;;;;5.53;2.40;;;;;;;;;;5095747;28;19923;-72
2022/09/13 13:41:06;;;;;;;2.35;1.83;;;;;;;;;;5095657;28;20052;-72
2022/09/13 13:43:38;;;;;;;5.47;2.50;;;;;;;;;;5095338;28;20052;-72
2022/09/13 13:46:10;;;;;;;5.82;2.10;;;;;;;;;;5095389;28;20056;-72
2022/09/13 13:48:40;;;;;;;2.92;1.83;;;;;;;;;;5095624;28;20047;-72
2022/09/13 13:51:13;;;;;;;3.30;1.92;;;;;;;;;;5094530;28;20510;-72
2022/09/13 13:53:43;;;;;;;2.85;2.00;;;;;;;;;;5095084;28;20071;-72
2022/09/13 13:56:28;;;;;;;7.93;2.00;;;;;;;;;;5093789;28;20052;-71
2022/09/13 13:59:02;;;;;;;3.80;2.50;;;;;;;;;;5095446;28;20434;-71
2022/09/13 14:01:30;;;;;;;6.18;2.08;;;;;;;;;;5094947;28;20054;-72
2022/09/13 14:03:56;;;;;;;4.40;2.25;;;;;;;;;;5094559;28;20075;-72
2022/09/13 14:06:23;;;;;;;5.05;2.08;;;;;;;;;;5093973;28;20039;-72
2022/09/13 14:09:28;;;;;;;3.85;2.35;;;;;;;;;;5094796;28;20495;-72
2022/09/13 14:12:17;;;;;;;4.22;2.80;;;;;;;;;;5072133;28;20403;-72
2022/09/13 14:14:52;;;;;;;6.05;2.80;;;;;;;;;;5072125;28;20048;-72
2022/09/13 14:17:24;;;;;;;3.90;2.28;;;;;;;;;;5087352;28;20048;-72
2022/09/13 14:19:58;;;;;;;3.25;2.55;;;;;;;;;;5094614;28;20501;-72
2022/09/13 14:22:25;;;;;;;6.53;3.20;;;;;;;;;;5094645;28;20503;-72
2022/09/13 14:24:53;;;;;;;7.32;3.15;;;;;;;;;;5094143;28;20055;-72
2022/09/13 14:27:19;;;;;;;;;;;;;;;;;;5081980;28;20055;-72
2022/09/13 14:29:47;;;;;;;6.93;2.83;;;;;;;;;;5094846;28;20002;-72
2022/09/13 14:32:16;;;;;;;8.18;3.13;;;;;;;;;;5094388;28;20036;-72
2022/09/13 14:34:50;;;;;;;9.45;3.25;;;;;;;;;;5093233;28;20048;-72
2022/09/13 14:37:17;;;;;;;6.95;2.83;;;;;;;;;;5094584;28;20046;-72
2022/09/13 14:39:54;;;;;;;6.93;3.50;;;;;;;;;;5094300;28;20052;-72
2022/09/13 14:42:20;;;;;;;5.57;3.63;;;;;;;;;;5094217;28;20105;-72
2022/09/13 14:44:47;;;;;;;6.17;2.80;;;;;;;;;;5094842;28;20051;-72
2022/09/13 14:47:22;;;;;;;3.63;2.65;;;;;;;;;;5094111;28;20277;-72
2022/09/13 14:49:52;;;;;;;4.43;2.60;;;;;;;;;;5094388;28;20052;-72
2022/09/13 14:52:21;;;;;;;5.18;3.10;;;;;;;;;;5093903;28;20483;-72
2022/09/13 14:54:50;;;;;;;3.40;2.70;;;;;;;;;;5094320;28;20044;-72
2022/09/13 14:57:22;;;;;;;3.13;2.45;;;;;;;;;;5093952;28;20059;-72
2022/09/13 14:59:51;;;;;;;3.13;2.40;;;;;;;;;;5093957;28;20055;-72
2022/09/13 15:02:19;;;;;;;5.50;2.55;;;;;;;;;;5093568;28;20075;-73
2022/09/13 15:04:50;;;;;;;5.93;2.88;;;;;;;;;;5092877;28;20050;-72